Time;durP1;ratioP1;P1;durP2;ratioP2;P2;SDS_P1;SDS_P2;PMS_P1;PMS_P2;Temp;Humidity;BMP_temperature;BMP_pressure;BME280_temperature;BME280_humidity;BME280_pressure;Samples;Min_cycle;Max_cycle;Signal;HPM_P1;HPM_P2
2023/12/15 00:00:13;;;;;;;1.10;0.90;;;;;;;;;;5015761;28;20234;-63
2023/12/15 00:02:40;;;;;;;1.30;1.20;;;;;;;;;;5015538;28;20203;-63
2023/12/15 00:05:09;;;;;;;1.10;1.00;;;;;;;;;;5015435;28;20199;-63
2023/12/15 00:07:36;;;;;;;1.05;1.00;;;;;;;;;;5015990;28;20457;-63
2023/12/15 00:10:04;;;;;;;1.13;1.02;;;;;;;;;;5015942;28;20204;-63
2023/12/15 00:12:32;;;;;;;1.10;1.00;;;;;;;;;;5015962;28;20256;-63
2023/12/15 00:15:00;;;;;;;1.13;1.02;;;;;;;;;;5015289;28;20206;-63
2023/12/15 00:17:27;;;;;;;1.05;1.05;;;;;;;;;;5015545;28;20206;-63
2023/12/15 00:19:55;;;;;;;1.20;1.10;;;;;;;;;;5015531;28;20207;-63
2023/12/15 00:22:22;;;;;;;1.00;1.00;;;;;;;;;;5015971;28;20481;-63
2023/12/15 00:24:49;;;;;;;1.17;1.10;;;;;;;;;;5015365;28;20206;-63
2023/12/15 00:27:17;;;;;;;1.20;1.10;;;;;;;;;;5015353;28;20715;-63
2023/12/15 00:29:46;;;;;;;1.20;1.10;;;;;;;;;;5015793;28;20229;-63
2023/12/15 00:32:13;;;;;;;1.20;1.10;;;;;;;;;;5015510;28;20280;-63
2023/12/15 00:34:40;;;;;;;1.00;1.00;;;;;;;;;;5015270;28;20217;-63
2023/12/15 00:37:08;;;;;;;1.17;1.10;;;;;;;;;;5015522;28;20218;-63
2023/12/15 00:39:37;;;;;;;1.10;1.00;;;;;;;;;;5015194;28;20245;-63
2023/12/15 00:42:05;;;;;;;1.30;1.20;;;;;;;;;;5015354;28;20213;-63
2023/12/15 00:44:33;;;;;;;1.50;1.40;;;;;;;;;;5014484;28;20206;-63
2023/12/15 00:47:02;;;;;;;1.23;1.13;;;;;;;;;;5014820;28;20206;-64
2023/12/15 00:49:29;;;;;;;1.13;1.02;;;;;;;;;;5015197;28;20214;-63
2023/12/15 00:51:56;;;;;;;1.20;1.10;;;;;;;;;;5014965;28;20544;-63
2023/12/15 00:54:24;;;;;;;1.65;1.20;;;;;;;;;;5015277;28;20579;-63
2023/12/15 00:56:51;;;;;;;1.30;1.20;;;;;;;;;;5015129;28;20207;-63
2023/12/15 00:59:19;;;;;;;1.20;1.10;;;;;;;;;;5015018;28;20247;-63
2023/12/15 01:01:46;;;;;;;1.30;1.20;;;;;;;;;;5014929;28;20202;-63
2023/12/15 01:04:15;;;;;;;1.10;1.00;;;;;;;;;;5014954;28;20213;-63
2023/12/15 01:06:42;;;;;;;1.40;1.30;;;;;;;;;;5015143;28;20207;-63
2023/12/15 01:09:10;;;;;;;1.77;1.20;;;;;;;;;;5015104;28;20496;-63
2023/12/15 01:11:37;;;;;;;1.25;1.15;;;;;;;;;;5014959;28;20484;-63
2023/12/15 01:14:04;;;;;;;1.20;1.10;;;;;;;;;;5014916;28;20304;-63
2023/12/15 01:16:32;;;;;;;1.10;1.10;;;;;;;;;;5015003;28;20206;-63
2023/12/15 01:18:59;;;;;;;1.10;1.00;;;;;;;;;;5014258;28;20613;-63
2023/12/15 01:21:28;;;;;;;1.23;1.13;;;;;;;;;;5014748;28;20217;-63
2023/12/15 01:23:55;;;;;;;1.20;1.10;;;;;;;;;;5015076;28;20206;-63
2023/12/15 01:26:23;;;;;;;1.30;1.20;;;;;;;;;;5014838;28;20206;-63
2023/12/15 01:28:50;;;;;;;1.45;1.35;;;;;;;;;;5015036;28;20339;-64
2023/12/15 01:31:17;;;;;;;1.38;1.27;;;;;;;;;;5014679;28;20214;-63
2023/12/15 01:33:44;;;;;;;1.50;1.40;;;;;;;;;;5014607;28;20230;-63
2023/12/15 01:36:12;;;;;;;1.15;1.05;;;;;;;;;;5014596;28;20207;-63
2023/12/15 01:38:41;;;;;;;1.20;1.10;;;;;;;;;;5014429;28;20319;-63
2023/12/15 01:41:08;;;;;;;1.30;1.20;;;;;;;;;;5014741;28;20207;-63
2023/12/15 01:43:35;;;;;;;1.45;1.35;;;;;;;;;;5014512;28;20583;-63
2023/12/15 01:46:03;;;;;;;1.30;1.20;;;;;;;;;;5014792;28;20582;-64
2023/12/15 01:48:31;;;;;;;1.30;1.20;;;;;;;;;;5014528;28;20210;-64
2023/12/15 01:50:58;;;;;;;1.30;1.20;;;;;;;;;;5014253;28;20206;-63
2023/12/15 01:53:26;;;;;;;1.38;1.15;;;;;;;;;;5014397;28;20241;-63
2023/12/15 01:55:55;;;;;;;1.30;1.17;;;;;;;;;;5014711;28;20206;-63
2023/12/15 01:58:22;;;;;;;1.40;1.30;;;;;;;;;;5014300;28;20678;-63
2023/12/15 02:00:49;;;;;;;1.65;1.45;;;;;;;;;;5014377;28;20207;-63
2023/12/15 02:03:17;;;;;;;1.33;1.23;;;;;;;;;;5014456;28;20586;-63
2023/12/15 02:05:44;;;;;;;1.58;1.30;;;;;;;;;;5014476;28;20218;-63
2023/12/15 02:08:12;;;;;;;1.65;1.42;;;;;;;;;;5014211;28;20206;-63
2023/12/15 02:10:39;;;;;;;1.40;1.30;;;;;;;;;;5014504;28;20218;-63
2023/12/15 02:13:09;;;;;;;1.40;1.30;;;;;;;;;;5014171;28;20234;-63
2023/12/15 02:15:36;;;;;;;1.42;1.33;;;;;;;;;;5014437;28;20206;-63
2023/12/15 02:18:03;;;;;;;1.73;1.40;;;;;;;;;;5014107;28;20218;-63
2023/12/15 02:20:32;;;;;;;1.38;1.27;;;;;;;;;;5014036;28;20210;-63
2023/12/15 02:23:00;;;;;;;2.60;1.48;;;;;;;;;;5014035;28;20214;-63
2023/12/15 02:25:28;;;;;;;1.60;1.50;;;;;;;;;;5014419;28;20206;-63
2023/12/15 02:27:56;;;;;;;1.80;1.48;;;;;;;;;;5014277;28;20302;-63
2023/12/15 02:30:23;;;;;;;1.65;1.55;;;;;;;;;;5015694;28;20285;-64
2023/12/15 02:32:51;;;;;;;1.50;1.40;;;;;;;;;;5017400;28;20245;-64
2023/12/15 02:35:18;;;;;;;2.03;1.52;;;;;;;;;;5017020;28;20276;-63
2023/12/15 02:37:46;;;;;;;1.45;1.35;;;;;;;;;;5017195;28;20583;-64
2023/12/15 02:40:15;;;;;;;1.55;1.45;;;;;;;;;;5017637;28;20206;-63
2023/12/15 02:42:42;;;;;;;1.40;1.30;;;;;;;;;;5017729;28;20245;-63
2023/12/15 02:45:10;;;;;;;1.40;1.30;;;;;;;;;;5017743;28;20513;-63
2023/12/15 02:47:37;;;;;;;1.67;1.58;;;;;;;;;;5017375;28;20210;-63
2023/12/15 02:50:05;;;;;;;1.70;1.60;;;;;;;;;;5017322;28;20214;-63
2023/12/15 02:52:32;;;;;;;1.40;1.30;;;;;;;;;;5017448;28;20512;-63
2023/12/15 02:55:00;;;;;;;1.55;1.45;;;;;;;;;;5017408;28;20207;-63
2023/12/15 02:57:28;;;;;;;1.63;1.50;;;;;;;;;;5016815;28;20257;-63
2023/12/15 02:59:56;;;;;;;1.60;1.50;;;;;;;;;;5016686;28;20211;-63
2023/12/15 03:02:23;;;;;;;1.40;1.30;;;;;;;;;;5017212;28;20202;-63
2023/12/15 03:04:51;;;;;;;1.70;1.60;;;;;;;;;;5016881;28;20226;-63
2023/12/15 03:07:18;;;;;;;1.70;1.60;;;;;;;;;;5016819;28;20524;-63
2023/12/15 03:09:45;;;;;;;1.55;1.45;;;;;;;;;;5016963;28;20218;-63
2023/12/15 03:12:12;;;;;;;1.40;1.30;;;;;;;;;;5016861;28;20214;-63
2023/12/15 03:14:42;;;;;;;1.85;1.40;;;;;;;;;;5016865;28;20206;-64
2023/12/15 03:17:09;;;;;;;1.60;1.50;;;;;;;;;;5017020;28;20206;-63
2023/12/15 03:19:39;;;;;;;1.63;1.52;;;;;;;;;;5016403;28;20221;-63
2023/12/15 03:22:06;;;;;;;1.90;1.80;;;;;;;;;;5016683;28;20207;-63
2023/12/15 03:24:34;;;;;;;1.73;1.63;;;;;;;;;;5016584;28;20618;-63
2023/12/15 03:27:01;;;;;;;1.63;1.52;;;;;;;;;;5016734;28;20206;-63
2023/12/15 03:29:28;;;;;;;1.40;1.30;;;;;;;;;;5016904;28;20218;-63
2023/12/15 03:31:57;;;;;;;1.60;1.50;;;;;;;;;;5016360;28;20221;-63
2023/12/15 03:34:24;;;;;;;1.90;1.80;;;;;;;;;;5016696;28;20227;-64
2023/12/15 03:36:52;;;;;;;1.70;1.60;;;;;;;;;;5016588;28;20589;-63
2023/12/15 03:39:19;;;;;;;1.67;1.58;;;;;;;;;;5016799;28;20206;-63
2023/12/15 03:41:47;;;;;;;1.50;1.40;;;;;;;;;;5016208;28;20207;-64
2023/12/15 03:44:14;;;;;;;1.70;1.60;;;;;;;;;;5016205;28;20202;-63
2023/12/15 03:46:41;;;;;;;1.52;1.42;;;;;;;;;;5016752;28;20479;-63
2023/12/15 03:49:10;;;;;;;2.00;1.80;;;;;;;;;;5016454;28;20214;-63
2023/12/15 03:51:37;;;;;;;1.67;1.58;;;;;;;;;;5016379;28;20217;-63
2023/12/15 03:54:04;;;;;;;1.83;1.73;;;;;;;;;;5015364;28;20226;-64
2023/12/15 03:56:32;;;;;;;1.60;1.50;;;;;;;;;;5015938;28;20205;-63
2023/12/15 03:59:00;;;;;;;1.95;1.85;;;;;;;;;;5015744;28;20241;-63
2023/12/15 04:01:29;;;;;;;1.63;1.52;;;;;;;;;;5015667;28;20272;-64
2023/12/15 04:03:57;;;;;;;1.60;1.50;;;;;;;;;;5015401;28;20209;-64
2023/12/15 04:06:25;;;;;;;1.95;1.77;;;;;;;;;;5015472;28;20245;-63
2023/12/15 04:08:53;;;;;;;1.80;1.70;;;;;;;;;;5015891;28;20206;-63
2023/12/15 04:11:21;;;;;;;1.80;1.70;;;;;;;;;;5015981;28;20249;-63
2023/12/15 04:13:48;;;;;;;1.70;1.60;;;;;;;;;;5015316;28;20241;-63
2023/12/15 04:16:15;;;;;;;1.90;1.58;;;;;;;;;;5016141;28;20214;-64
2023/12/15 04:18:43;;;;;;;1.80;1.70;;;;;;;;;;5015514;28;20221;-63
2023/12/15 04:21:10;;;;;;;1.85;1.60;;;;;;;;;;5015765;28;20229;-64
2023/12/15 04:23:39;;;;;;;2.03;1.70;;;;;;;;;;5015551;28;20205;-63
2023/12/15 04:26:07;;;;;;;1.80;1.70;;;;;;;;;;5015422;28;20206;-63
2023/12/15 04:28:34;;;;;;;1.70;1.60;;;;;;;;;;5016114;28;20450;-64
2023/12/15 04:31:01;;;;;;;2.00;1.80;;;;;;;;;;5015912;28;20217;-64
2023/12/15 04:33:29;;;;;;;1.80;1.55;;;;;;;;;;5015513;28;20230;-63
2023/12/15 04:35:56;;;;;;;1.63;1.52;;;;;;;;;;5015345;28;20218;-64
2023/12/15 04:38:23;;;;;;;2.05;1.58;;;;;;;;;;5015502;28;20206;-63
2023/12/15 04:40:52;;;;;;;1.63;1.52;;;;;;;;;;5014807;28;20218;-63
2023/12/15 04:43:19;;;;;;;2.03;1.60;;;;;;;;;;5015577;28;20210;-63
2023/12/15 04:45:47;;;;;;;1.70;1.60;;;;;;;;;;5015213;28;20206;-63
2023/12/15 04:48:14;;;;;;;1.52;1.42;;;;;;;;;;5015520;28;20217;-63
2023/12/15 04:50:42;;;;;;;1.80;1.70;;;;;;;;;;5015330;28;20206;-64
2023/12/15 04:53:09;;;;;;;1.70;1.60;;;;;;;;;;5013902;28;20258;-63
2023/12/15 04:55:36;;;;;;;1.70;1.60;;;;;;;;;;5015194;28;20207;-63
2023/12/15 04:58:05;;;;;;;1.60;1.50;;;;;;;;;;5014604;28;20249;-63
2023/12/15 05:00:33;;;;;;;1.58;1.48;;;;;;;;;;5015209;28;20206;-64
2023/12/15 05:03:00;;;;;;;1.77;1.67;;;;;;;;;;5014815;28;20202;-63
2023/12/15 05:05:28;;;;;;;1.50;1.40;;;;;;;;;;5014704;28;20206;-63
2023/12/15 05:07:55;;;;;;;1.55;1.45;;;;;;;;;;5014814;28;20206;-63
2023/12/15 05:10:22;;;;;;;1.85;1.70;;;;;;;;;;5014450;28;20723;-64
2023/12/15 05:12:49;;;;;;;1.60;1.50;;;;;;;;;;5014790;28;20217;-63
2023/12/15 05:15:18;;;;;;;1.80;1.70;;;;;;;;;;5015005;28;20207;-63
2023/12/15 05:17:46;;;;;;;1.70;1.60;;;;;;;;;;5014755;28;20297;-64
2023/12/15 05:20:13;;;;;;;1.50;1.40;;;;;;;;;;5014018;28;20214;-63
2023/12/15 05:22:40;;;;;;;2.25;1.55;;;;;;;;;;5014243;28;20206;-63
2023/12/15 05:25:09;;;;;;;1.50;1.40;;;;;;;;;;5014070;28;20241;-63
2023/12/15 05:27:36;;;;;;;1.63;1.50;;;;;;;;;;5013536;28;20209;-63
2023/12/15 05:30:04;;;;;;;1.60;1.50;;;;;;;;;;5013718;28;20214;-63
2023/12/15 05:32:33;;;;;;;1.60;1.50;;;;;;;;;;5013612;28;20225;-64
2023/12/15 05:35:00;;;;;;;1.70;1.60;;;;;;;;;;5013997;28;20238;-63
2023/12/15 05:37:27;;;;;;;1.60;1.50;;;;;;;;;;5013960;28;20207;-63
2023/12/15 05:39:55;;;;;;;2.38;1.50;;;;;;;;;;5013952;28;20508;-63
2023/12/15 05:42:22;;;;;;;1.90;1.60;;;;;;;;;;5013460;28;20199;-63
2023/12/15 05:44:50;;;;;;;2.22;1.58;;;;;;;;;;5013619;28;20203;-63
2023/12/15 05:47:17;;;;;;;1.50;1.40;;;;;;;;;;5012803;28;20217;-63
2023/12/15 05:49:46;;;;;;;1.75;1.40;;;;;;;;;;5013024;28;20206;-63
2023/12/15 05:52:14;;;;;;;1.45;1.35;;;;;;;;;;5012984;28;20482;-63
2023/12/15 05:54:41;;;;;;;3.25;1.70;;;;;;;;;;5013119;28;20234;-64
2023/12/15 05:57:09;;;;;;;2.03;1.70;;;;;;;;;;5012180;28;20213;-63
2023/12/15 05:59:36;;;;;;;1.50;1.40;;;;;;;;;;5012674;28;20216;-63
2023/12/15 06:02:03;;;;;;;1.80;1.70;;;;;;;;;;5012802;28;20265;-63
2023/12/15 06:04:31;;;;;;;2.85;1.70;;;;;;;;;;5014355;28;20206;-63
2023/12/15 06:06:59;;;;;;;1.50;1.40;;;;;;;;;;5016501;28;20560;-63
2023/12/15 06:09:27;;;;;;;1.80;1.50;;;;;;;;;;5015791;28;20212;-63
2023/12/15 06:11:55;;;;;;;1.73;1.58;;;;;;;;;;5016321;28;20492;-63
2023/12/15 06:14:22;;;;;;;1.60;1.48;;;;;;;;;;5015032;28;20321;-63
2023/12/15 06:16:49;;;;;;;1.67;1.58;;;;;;;;;;5015585;28;20702;-63
2023/12/15 06:19:17;;;;;;;1.88;1.60;;;;;;;;;;5015114;28;20206;-63
2023/12/15 06:21:44;;;;;;;1.50;1.40;;;;;;;;;;5015314;28;20214;-63
2023/12/15 06:24:13;;;;;;;1.38;1.27;;;;;;;;;;5014139;28;20213;-62
2023/12/15 06:26:40;;;;;;;1.70;1.50;;;;;;;;;;5015434;28;20218;-64
2023/12/15 06:29:08;;;;;;;1.42;1.33;;;;;;;;;;5015563;28;20206;-63
2023/12/15 06:31:35;;;;;;;1.50;1.40;;;;;;;;;;5014965;28;20263;-63
2023/12/15 06:34:03;;;;;;;1.40;1.30;;;;;;;;;;5014588;28;20230;-63
2023/12/15 06:36:30;;;;;;;1.35;1.25;;;;;;;;;;5014878;28;20249;-64
2023/12/15 06:38:58;;;;;;;1.88;1.77;;;;;;;;;;5013886;28;20202;-64
2023/12/15 06:41:27;;;;;;;1.50;1.40;;;;;;;;;;5014982;28;20702;-63
2023/12/15 06:43:55;;;;;;;1.90;1.65;;;;;;;;;;5014890;28;20611;-64
2023/12/15 06:46:22;;;;;;;2.72;1.60;;;;;;;;;;5014922;28;20210;-64
2023/12/15 06:48:50;;;;;;;1.52;1.42;;;;;;;;;;5015282;28;20217;-63
2023/12/15 06:51:17;;;;;;;1.55;1.45;;;;;;;;;;5014313;28;20207;-63
2023/12/15 06:53:45;;;;;;;1.48;1.38;;;;;;;;;;5014497;28;20249;-63
2023/12/15 06:56:12;;;;;;;2.42;1.80;;;;;;;;;;5014580;28;20218;-63
2023/12/15 06:58:41;;;;;;;1.95;1.70;;;;;;;;;;5014445;28;20234;-64
2023/12/15 07:01:08;;;;;;;2.42;1.65;;;;;;;;;;5015326;28;20207;-64
2023/12/15 07:03:35;;;;;;;1.77;1.58;;;;;;;;;;5014183;28;20527;-64
2023/12/15 07:06:03;;;;;;;2.30;1.70;;;;;;;;;;5014695;28;20241;-63
2023/12/15 07:08:31;;;;;;;1.58;1.48;;;;;;;;;;5014853;28;20206;-63
2023/12/15 07:10:58;;;;;;;2.05;1.38;;;;;;;;;;5014180;28;20213;-63
2023/12/15 07:13:25;;;;;;;1.52;1.42;;;;;;;;;;5014309;28;20650;-63
2023/12/15 07:15:55;;;;;;;1.60;1.50;;;;;;;;;;5013434;28;20205;-63
2023/12/15 07:18:22;;;;;;;1.63;1.52;;;;;;;;;;5013382;28;20217;-64
2023/12/15 07:20:49;;;;;;;1.75;1.50;;;;;;;;;;5014155;28;20206;-63
2023/12/15 07:23:17;;;;;;;2.38;1.73;;;;;;;;;;5014497;28;20636;-64
2023/12/15 07:25:44;;;;;;;2.10;1.80;;;;;;;;;;5014551;28;20194;-63
2023/12/15 07:28:11;;;;;;;1.85;1.73;;;;;;;;;;5014059;28;20209;-63
2023/12/15 07:30:39;;;;;;;2.17;1.65;;;;;;;;;;5014061;28;20202;-63
2023/12/15 07:33:08;;;;;;;2.20;1.80;;;;;;;;;;5014815;28;20213;-63
2023/12/15 07:35:35;;;;;;;2.58;1.50;;;;;;;;;;5014755;28;20828;-63
2023/12/15 07:38:03;;;;;;;4.47;1.92;;;;;;;;;;5015033;28;20241;-63
2023/12/15 07:40:30;;;;;;;2.40;1.67;;;;;;;;;;5015441;28;20217;-64
2023/12/15 07:42:57;;;;;;;2.88;1.90;;;;;;;;;;5014781;28;20471;-63
2023/12/15 07:45:25;;;;;;;2.13;1.90;;;;;;;;;;5014593;28;20213;-63
2023/12/15 07:47:53;;;;;;;2.67;1.83;;;;;;;;;;5014271;28;20496;-63
2023/12/15 07:50:22;;;;;;;3.25;2.15;;;;;;;;;;5013823;28;20220;-63
2023/12/15 07:52:50;;;;;;;3.17;1.70;;;;;;;;;;5013639;28;20275;-64
2023/12/15 07:55:18;;;;;;;2.10;1.75;;;;;;;;;;5014359;28;20321;-63
2023/12/15 07:57:45;;;;;;;2.20;1.73;;;;;;;;;;5014058;28;20262;-64
2023/12/15 08:00:13;;;;;;;3.22;2.13;;;;;;;;;;5014333;28;20249;-64
2023/12/15 08:02:41;;;;;;;3.08;2.00;;;;;;;;;;5014713;28;20630;-63
2023/12/15 08:05:09;;;;;;;3.10;2.10;;;;;;;;;;5014182;28;20213;-63
2023/12/15 08:07:37;;;;;;;2.88;1.90;;;;;;;;;;5014369;28;20202;-64
2023/12/15 08:10:05;;;;;;;3.63;1.90;;;;;;;;;;5014680;28;20217;-64
2023/12/15 08:12:32;;;;;;;2.20;2.00;;;;;;;;;;5014726;28;20241;-64
2023/12/15 08:15:00;;;;;;;2.45;2.05;;;;;;;;;;5014762;28;20233;-63
2023/12/15 08:17:27;;;;;;;3.30;2.20;;;;;;;;;;5013930;28;20206;-63
2023/12/15 08:19:55;;;;;;;3.20;2.28;;;;;;;;;;5013981;28;20217;-63
2023/12/15 08:22:22;;;;;;;3.35;2.30;;;;;;;;;;5014132;28;20742;-63
2023/12/15 08:24:51;;;;;;;3.45;2.03;;;;;;;;;;5013799;28;20206;-63
2023/12/15 08:27:20;;;;;;;2.85;2.00;;;;;;;;;;5013635;28;20217;-63
2023/12/15 08:29:48;;;;;;;3.95;2.50;;;;;;;;;;5013911;28;20842;-63
2023/12/15 08:32:15;;;;;;;2.50;2.17;;;;;;;;;;5013879;28;20206;-63
2023/12/15 08:34:42;;;;;;;3.10;2.20;;;;;;;;;;5014042;28;20491;-63
2023/12/15 08:37:10;;;;;;;3.13;1.95;;;;;;;;;;5014213;28;20206;-63
2023/12/15 08:39:37;;;;;;;2.70;2.17;;;;;;;;;;5014169;28;20207;-64
2023/12/15 08:42:06;;;;;;;2.47;2.10;;;;;;;;;;5014088;28;20522;-64
2023/12/15 08:44:34;;;;;;;2.95;2.25;;;;;;;;;;5013924;28;20626;-63
2023/12/15 08:47:01;;;;;;;2.97;1.90;;;;;;;;;;5012744;28;20209;-63
2023/12/15 08:49:28;;;;;;;2.78;2.33;;;;;;;;;;5012585;28;20233;-63
2023/12/15 08:51:56;;;;;;;3.67;2.30;;;;;;;;;;4998716;28;20523;-63
2023/12/15 08:54:23;;;;;;;3.30;2.30;;;;;;;;;;4993840;28;20238;-63
2023/12/15 08:56:50;;;;;;;2.33;2.13;;;;;;;;;;4993725;28;20211;-63
2023/12/15 08:59:19;;;;;;;2.88;2.17;;;;;;;;;;5087833;28;20824;-63
2023/12/15 09:01:46;;;;;;;3.00;2.45;;;;;;;;;;5095899;28;20211;-63
2023/12/15 09:04:14;;;;;;;2.65;2.22;;;;;;;;;;5096762;28;20495;-64
2023/12/15 09:06:41;;;;;;;2.83;2.20;;;;;;;;;;5096091;28;20230;-64
2023/12/15 09:09:10;;;;;;;2.63;2.20;;;;;;;;;;5095278;28;20239;-63
2023/12/15 09:11:38;;;;;;;2.50;2.10;;;;;;;;;;5095859;28;20243;-63
2023/12/15 09:14:05;;;;;;;2.63;2.03;;;;;;;;;;5096675;28;20211;-64
2023/12/15 09:16:34;;;;;;;3.65;2.40;;;;;;;;;;5096424;28;20207;-63
2023/12/15 09:19:01;;;;;;;2.80;2.10;;;;;;;;;;5096324;28;20204;-63
2023/12/15 09:21:28;;;;;;;3.60;1.90;;;;;;;;;;5095473;28;20208;-63
2023/12/15 09:23:57;;;;;;;2.42;2.20;;;;;;;;;;5095986;28;20199;-63
2023/12/15 09:26:24;;;;;;;2.30;2.10;;;;;;;;;;5095413;28;20577;-63
2023/12/15 09:28:52;;;;;;;2.67;2.00;;;;;;;;;;5095699;28;20203;-63
2023/12/15 09:31:19;;;;;;;3.03;2.50;;;;;;;;;;5095808;28;20226;-63
2023/12/15 09:33:48;;;;;;;2.70;2.38;;;;;;;;;;5095949;28;20204;-63
2023/12/15 09:36:15;;;;;;;2.65;2.45;;;;;;;;;;5095802;28;20224;-63
2023/12/15 09:38:43;;;;;;;2.42;2.05;;;;;;;;;;5094904;28;20207;-63
2023/12/15 09:41:10;;;;;;;4.25;2.60;;;;;;;;;;5095685;28;20203;-63
2023/12/15 09:43:38;;;;;;;2.30;2.10;;;;;;;;;;5095803;28;20219;-63
2023/12/15 09:46:05;;;;;;;2.47;2.28;;;;;;;;;;5095051;28;20219;-63
2023/12/15 09:48:33;;;;;;;2.28;1.80;;;;;;;;;;5095645;28;20218;-63
2023/12/15 09:51:03;;;;;;;3.25;2.38;;;;;;;;;;5094925;28;20203;-63
2023/12/15 09:53:34;;;;;;;2.80;2.50;;;;;;;;;;5095310;28;20207;-63
2023/12/15 09:56:02;;;;;;;3.22;2.38;;;;;;;;;;5094656;28;20223;-63
2023/12/15 09:58:29;;;;;;;2.80;2.50;;;;;;;;;;5094426;28;20291;-63
2023/12/15 10:00:58;;;;;;;3.60;2.50;;;;;;;;;;5095791;28;20228;-63
2023/12/15 10:03:25;;;;;;;2.65;2.13;;;;;;;;;;5094959;28;20211;-63
2023/12/15 10:05:53;;;;;;;2.90;2.20;;;;;;;;;;5095173;28;20207;-63
2023/12/15 10:08:23;;;;;;;2.97;2.13;;;;;;;;;;5095159;28;20667;-63
2023/12/15 10:10:51;;;;;;;2.33;2.13;;;;;;;;;;5095297;28;20203;-63
2023/12/15 10:13:18;;;;;;;3.35;2.47;;;;;;;;;;5095341;28;20648;-63
2023/12/15 10:15:46;;;;;;;2.83;2.20;;;;;;;;;;5095320;28;20237;-63
2023/12/15 10:18:14;;;;;;;2.97;2.25;;;;;;;;;;5094516;28;20206;-63
2023/12/15 10:20:43;;;;;;;2.60;2.30;;;;;;;;;;5095613;28;20204;-63
2023/12/15 10:23:10;;;;;;;2.60;2.17;;;;;;;;;;5095212;28;20203;-62
2023/12/15 10:25:39;;;;;;;4.40;2.38;;;;;;;;;;5095662;28;20211;-63
2023/12/15 10:28:07;;;;;;;2.40;2.20;;;;;;;;;;5094770;28;20302;-63
2023/12/15 10:30:34;;;;;;;2.42;2.22;;;;;;;;;;5094015;28;20481;-63
2023/12/15 10:33:02;;;;;;;2.58;2.03;;;;;;;;;;5094479;28;20217;-63
2023/12/15 10:35:30;;;;;;;2.53;2.30;;;;;;;;;;5094497;28;20262;-63
2023/12/15 10:37:57;;;;;;;2.90;2.30;;;;;;;;;;5093829;28;20236;-63
2023/12/15 10:40:26;;;;;;;3.17;2.17;;;;;;;;;;5094316;28;20204;-63
2023/12/15 10:42:55;;;;;;;2.70;2.17;;;;;;;;;;5093559;28;20211;-63
2023/12/15 10:45:23;;;;;;;3.08;2.40;;;;;;;;;;5094081;28;20207;-63
2023/12/15 10:47:51;;;;;;;2.20;1.90;;;;;;;;;;5093791;28;20618;-63
2023/12/15 10:50:19;;;;;;;2.65;2.10;;;;;;;;;;5094255;28;20200;-63
2023/12/15 10:52:46;;;;;;;2.63;2.25;;;;;;;;;;5097647;28;20200;-62
2023/12/15 10:55:14;;;;;;;2.67;2.47;;;;;;;;;;5097558;28;20228;-63
2023/12/15 10:57:42;;;;;;;2.63;2.40;;;;;;;;;;5097835;28;20262;-63
2023/12/15 11:00:11;;;;;;;2.83;2.25;;;;;;;;;;5098262;28;20203;-63
2023/12/15 11:02:39;;;;;;;3.08;2.28;;;;;;;;;;5097903;28;20195;-63
2023/12/15 11:05:09;;;;;;;2.50;2.15;;;;;;;;;;5097944;28;20199;-62
2023/12/15 11:07:37;;;;;;;2.70;2.22;;;;;;;;;;5098026;28;20204;-62
2023/12/15 11:10:05;;;;;;;3.50;2.47;;;;;;;;;;5098098;28;20223;-63
2023/12/15 11:12:33;;;;;;;2.50;2.13;;;;;;;;;;5097782;28;20203;-63
2023/12/15 11:15:02;;;;;;;2.30;2.10;;;;;;;;;;5097720;28;20755;-63
2023/12/15 11:17:31;;;;;;;2.88;2.28;;;;;;;;;;5098272;28;20295;-63
2023/12/15 11:20:02;;;;;;;2.53;2.22;;;;;;;;;;5097987;28;20204;-63
2023/12/15 11:22:30;;;;;;;3.53;2.20;;;;;;;;;;5098204;28;20214;-63
2023/12/15 11:24:57;;;;;;;2.47;2.28;;;;;;;;;;5097483;28;20213;-63
2023/12/15 11:27:25;;;;;;;2.70;1.95;;;;;;;;;;5096348;28;20206;-63
2023/12/15 11:29:53;;;;;;;3.22;2.20;;;;;;;;;;5095829;28;20304;-63
2023/12/15 11:32:33;;;;;;;2.10;1.85;;;;;;;;;;5096675;28;20294;-63
2023/12/15 11:35:00;;;;;;;2.50;2.30;;;;;;;;;;5096045;28;20260;-62
2023/12/15 11:37:28;;;;;;;2.47;1.83;;;;;;;;;;5096230;28;20705;-62
2023/12/15 11:39:56;;;;;;;2.22;2.03;;;;;;;;;;5096924;28;20214;-62
2023/12/15 11:42:23;;;;;;;2.28;2.08;;;;;;;;;;5096457;28;20208;-62
2023/12/15 11:44:52;;;;;;;2.35;2.10;;;;;;;;;;5096588;28;20235;-63
2023/12/15 11:47:20;;;;;;;2.45;2.20;;;;;;;;;;5096207;28;20235;-63
2023/12/15 11:49:51;;;;;;;2.38;2.08;;;;;;;;;;5096375;28;20286;-63
2023/12/15 11:52:19;;;;;;;2.65;2.30;;;;;;;;;;5096247;28;20249;-63
2023/12/15 11:54:47;;;;;;;2.33;2.13;;;;;;;;;;5096430;28;20751;-63
2023/12/15 11:57:14;;;;;;;2.35;2.15;;;;;;;;;;5096121;28;20289;-63
2023/12/15 11:59:44;;;;;;;2.25;2.05;;;;;;;;;;5096232;28;20203;-63
2023/12/15 12:02:16;;;;;;;2.35;2.13;;;;;;;;;;5095709;28;20243;-63
2023/12/15 12:04:44;;;;;;;2.30;2.10;;;;;;;;;;5096760;28;20212;-63
2023/12/15 12:07:14;;;;;;;2.45;2.20;;;;;;;;;;5096355;28;20285;-63
2023/12/15 12:09:42;;;;;;;1.98;1.80;;;;;;;;;;5096699;28;20207;-63
2023/12/15 12:12:09;;;;;;;2.47;2.28;;;;;;;;;;5096009;28;20215;-63
2023/12/15 12:14:42;;;;;;;2.55;2.35;;;;;;;;;;5095922;28;20207;-63
2023/12/15 12:17:11;;;;;;;2.50;2.10;;;;;;;;;;5097333;28;20227;-63
2023/12/15 12:19:41;;;;;;;2.38;2.17;;;;;;;;;;5095830;28;20427;-63
2023/12/15 12:22:11;;;;;;;2.17;1.95;;;;;;;;;;5096814;28;20235;-63
2023/12/15 12:24:40;;;;;;;2.25;2.05;;;;;;;;;;5096210;28;20204;-63
2023/12/15 12:27:08;;;;;;;2.10;1.90;;;;;;;;;;5095022;28;20207;-62
2023/12/15 12:29:37;;;;;;;2.10;1.90;;;;;;;;;;5096018;28;20215;-62
2023/12/15 12:32:06;;;;;;;2.00;1.83;;;;;;;;;;5096509;28;20203;-62
2023/12/15 12:34:34;;;;;;;1.90;1.70;;;;;;;;;;5095765;28;20235;-63
2023/12/15 12:37:01;;;;;;;2.03;1.60;;;;;;;;;;5095789;28;20227;-63
2023/12/15 12:39:29;;;;;;;2.00;1.77;;;;;;;;;;5095104;28;20287;-63
2023/12/15 12:41:58;;;;;;;2.03;1.83;;;;;;;;;;5095055;28;20203;-63
2023/12/15 12:44:26;;;;;;;2.08;1.73;;;;;;;;;;5095253;28;20214;-63
2023/12/15 12:46:53;;;;;;;1.90;1.80;;;;;;;;;;5095762;28;20219;-63
2023/12/15 12:49:21;;;;;;;2.58;1.70;;;;;;;;;;5095265;28;20215;-63
2023/12/15 12:51:48;;;;;;;2.30;1.80;;;;;;;;;;5095632;28;20204;-63
2023/12/15 12:54:15;;;;;;;1.70;1.60;;;;;;;;;;5095412;28;20200;-63
2023/12/15 12:56:43;;;;;;;2.10;1.90;;;;;;;;;;5095462;28;20227;-63
2023/12/15 12:59:11;;;;;;;2.20;2.00;;;;;;;;;;5093834;28;20239;-63
2023/12/15 13:01:39;;;;;;;2.13;1.92;;;;;;;;;;5094160;28;20215;-63
2023/12/15 13:04:07;;;;;;;1.73;1.63;;;;;;;;;;5094583;28;20204;-63
2023/12/15 13:06:35;;;;;;;1.98;1.83;;;;;;;;;;5095243;28;20208;-63
2023/12/15 13:09:02;;;;;;;1.70;1.60;;;;;;;;;;5095053;28;20239;-63
2023/12/15 13:11:29;;;;;;;1.80;1.70;;;;;;;;;;5095581;28;20214;-63
2023/12/15 13:13:56;;;;;;;1.98;1.80;;;;;;;;;;5093849;28;20215;-63
2023/12/15 13:16:25;;;;;;;1.90;1.70;;;;;;;;;;5093921;28;20223;-63
2023/12/15 13:18:53;;;;;;;1.95;1.70;;;;;;;;;;5094270;28;20204;-63
2023/12/15 13:21:20;;;;;;;2.20;2.00;;;;;;;;;;5094928;28;20225;-63
2023/12/15 13:23:47;;;;;;;1.70;1.60;;;;;;;;;;5095592;28;20230;-63
2023/12/15 13:26:15;;;;;;;2.13;1.92;;;;;;;;;;5094864;28;20207;-63
2023/12/15 13:28:42;;;;;;;1.65;1.50;;;;;;;;;;5094247;28;20242;-63
2023/12/15 13:31:11;;;;;;;1.70;1.60;;;;;;;;;;5094285;28;20204;-63
2023/12/15 13:33:45;;;;;;;1.70;1.60;;;;;;;;;;5093638;28;20600;-63
2023/12/15 13:36:13;;;;;;;1.70;1.52;;;;;;;;;;5094560;28;20250;-62
2023/12/15 13:38:40;;;;;;;1.73;1.63;;;;;;;;;;5094549;28;20204;-63
2023/12/15 13:41:08;;;;;;;1.88;1.77;;;;;;;;;;5094539;28;20214;-63
2023/12/15 13:43:37;;;;;;;1.63;1.52;;;;;;;;;;5094158;28;20584;-63
2023/12/15 13:46:04;;;;;;;1.50;1.40;;;;;;;;;;5093718;28;20264;-63
2023/12/15 13:48:32;;;;;;;1.40;1.30;;;;;;;;;;5094397;28;20199;-63
2023/12/15 13:51:01;;;;;;;1.70;1.60;;;;;;;;;;5094250;28;20203;-63
2023/12/15 13:53:29;;;;;;;1.70;1.60;;;;;;;;;;5093861;28;20207;-63
2023/12/15 13:55:58;;;;;;;1.60;1.50;;;;;;;;;;5094770;28;20227;-63
2023/12/15 13:58:25;;;;;;;1.58;1.48;;;;;;;;;;5093372;28;20243;-63
2023/12/15 14:00:53;;;;;;;1.58;1.48;;;;;;;;;;5093673;28;20203;-63
2023/12/15 14:03:20;;;;;;;1.77;1.67;;;;;;;;;;5094299;28;20204;-63
2023/12/15 14:05:48;;;;;;;1.60;1.50;;;;;;;;;;5094727;28;20195;-63
2023/12/15 14:08:18;;;;;;;1.67;1.58;;;;;;;;;;5093472;28;20294;-62
2023/12/15 14:10:46;;;;;;;1.58;1.48;;;;;;;;;;5094391;28;20208;-62
2023/12/15 14:13:14;;;;;;;1.50;1.40;;;;;;;;;;5094380;28;20207;-62
2023/12/15 14:58:41;;;;;;;2.20;1.80;;;;;;;;;;5111898;27;20560;-61
2023/12/15 15:01:07;;;;;;;3.20;1.75;;;;;;;;;;5111275;28;20213;-62
2023/12/15 15:03:34;;;;;;;3.97;1.58;;;;;;;;;;5111848;28;20298;-62
2023/12/15 15:06:02;;;;;;;3.47;1.83;;;;;;;;;;5111155;28;20213;-62
2023/12/15 15:08:30;;;;;;;3.92;1.60;;;;;;;;;;5110649;28;20202;-62
2023/12/15 15:10:58;;;;;;;2.08;1.50;;;;;;;;;;5111465;28;20218;-62
2023/12/15 15:13:25;;;;;;;2.40;1.67;;;;;;;;;;5111501;28;20234;-61
2023/12/15 15:15:54;;;;;;;2.95;1.50;;;;;;;;;;5110995;28;20199;-61
2023/12/15 15:18:23;;;;;;;3.50;2.10;;;;;;;;;;5111498;28;20207;-61
2023/12/15 15:20:51;;;;;;;3.47;1.60;;;;;;;;;;5111741;28;20203;-61
2023/12/15 15:23:18;;;;;;;2.97;1.70;;;;;;;;;;5110931;28;20209;-61
2023/12/15 15:25:46;;;;;;;3.72;1.70;;;;;;;;;;5110818;28;20203;-61
2023/12/15 15:28:13;;;;;;;1.95;1.40;;;;;;;;;;5111414;28;20261;-61